createdAt,value
2023-02-28T00:00:08.646Z,-0.68
2023-02-28T00:01:08.202Z,-0.63
2023-02-28T00:02:07.766Z,-0.68
2023-02-28T00:03:07.570Z,-0.73
2023-02-28T00:04:08.691Z,-0.80
2023-02-28T00:05:07.980Z,-0.87
2023-02-28T00:06:08.157Z,-0.81
2023-02-28T00:07:08.351Z,-0.92
2023-02-28T00:08:09.187Z,-0.89
2023-02-28T00:09:08.701Z,-0.84
2023-02-28T00:10:09.660Z,-0.84
2023-02-28T00:11:09.653Z,-0.87
2023-02-28T00:12:09.701Z,-0.80
2023-02-28T00:13:10.165Z,-0.89
2023-02-28T00:14:11.159Z,-0.86
2023-02-28T00:15:32.588Z,-0.77
2023-02-28T00:16:11.598Z,-0.91
2023-02-28T00:17:10.707Z,-0.83
2023-02-28T00:18:10.358Z,-0.84
2023-02-28T00:19:12.152Z,-0.86
2023-02-28T00:20:12.151Z,-1.00
2023-02-28T00:21:10.946Z,-0.87
2023-02-28T00:22:12.152Z,-0.92
2023-02-28T00:23:13.658Z,-0.91
2023-02-28T00:24:11.402Z,-0.95
2023-02-28T00:25:13.025Z,-0.97
2023-02-28T00:26:12.328Z,-0.99
2023-02-28T00:27:13.721Z,-1.03
2023-02-28T00:28:12.724Z,-1.15
2023-02-28T00:29:12.358Z,-1.09
2023-02-28T00:30:13.155Z,-1.20
2023-02-28T00:31:13.619Z,-1.18
2023-02-28T00:32:14.199Z,-1.20
2023-02-28T00:33:12.971Z,-1.25
2023-02-28T00:34:13.136Z,-1.24
2023-02-28T00:35:13.290Z,-1.27
2023-02-28T00:36:13.469Z,-1.30
2023-02-28T00:37:14.164Z,-1.27
2023-02-28T00:38:13.791Z,-1.25
2023-02-28T00:39:13.956Z,-1.18
2023-02-28T00:40:14.124Z,-1.18
2023-02-28T00:41:14.346Z,-1.25
2023-02-28T00:42:14.537Z,-1.21
2023-02-28T00:43:14.720Z,-1.25
2023-02-28T00:44:15.699Z,-1.27
2023-02-28T00:45:15.094Z,-1.25
2023-02-28T00:46:15.320Z,-1.31
2023-02-28T00:47:15.446Z,-1.21
2023-02-28T00:48:16.658Z,-1.33
2023-02-28T00:49:15.806Z,-1.33
2023-02-28T00:50:16.660Z,-1.27
2023-02-28T00:51:16.711Z,-1.25
2023-02-28T00:52:16.420Z,-1.28
2023-02-28T00:53:17.196Z,-1.36
2023-02-28T00:54:17.662Z,-1.49
2023-02-28T00:55:17.055Z,-1.53
2023-02-28T00:56:17.247Z,-1.67
2023-02-28T00:57:17.463Z,-1.62
2023-02-28T00:58:18.520Z,-1.66
2023-02-28T00:59:18.702Z,-1.70
2023-02-28T01:00:18.221Z,-1.69
2023-02-28T01:01:18.738Z,-1.82
2023-02-28T01:02:18.293Z,-1.69
2023-02-28T01:03:18.460Z,-1.77
2023-02-28T01:04:18.671Z,-1.80
2023-02-28T01:05:18.848Z,-1.77
2023-02-28T01:06:19.013Z,-1.88
2023-02-28T01:07:19.217Z,-1.96
2023-02-28T01:08:20.671Z,-2.05
2023-02-28T01:09:20.201Z,-1.99
2023-02-28T01:10:19.745Z,-2.02
2023-02-28T01:11:19.929Z,-1.98
2023-02-28T01:12:20.070Z,-2.06
2023-02-28T01:13:20.217Z,-2.02
2023-02-28T01:14:20.370Z,-2.06
2023-02-28T01:15:20.565Z,-1.99
2023-02-28T01:16:20.736Z,-2.02
2023-02-28T01:17:20.906Z,-2.06
2023-02-28T01:18:21.097Z,-1.96
2023-02-28T01:19:23.172Z,-2.11
2023-02-28T01:20:23.167Z,-2.05
2023-02-28T01:21:21.543Z,-2.16
2023-02-28T01:22:22.664Z,-2.18
2023-02-28T01:23:22.217Z,-2.26
2023-02-28T01:24:22.006Z,-2.17
2023-02-28T01:25:22.763Z,-2.32
2023-02-28T01:26:22.330Z,-2.21
2023-02-28T01:27:23.027Z,-2.35
2023-02-28T01:28:22.699Z,-2.26
2023-02-28T01:29:22.917Z,-2.20
2023-02-28T01:30:24.668Z,-2.36
2023-02-28T01:31:24.237Z,-2.39
2023-02-28T01:32:23.525Z,-2.36
2023-02-28T01:33:23.702Z,-2.36
2023-02-28T01:34:23.883Z,-2.29
2023-02-28T01:35:24.032Z,-2.35
2023-02-28T01:36:25.167Z,-2.26
2023-02-28T01:37:25.205Z,-2.35
2023-02-28T01:38:24.567Z,-2.35
2023-02-28T01:39:24.831Z,-2.24
2023-02-28T01:40:24.992Z,-2.32
2023-02-28T01:41:25.135Z,-2.18
2023-02-28T01:42:26.174Z,-2.32
2023-02-28T01:43:25.419Z,-2.38
2023-02-28T01:44:25.558Z,-2.42
2023-02-28T01:45:26.666Z,-2.38
2023-02-28T01:46:26.798Z,-2.38
2023-02-28T01:47:26.057Z,-2.33
2023-02-28T01:48:27.219Z,-2.21
2023-02-28T01:49:26.356Z,-2.23
2023-02-28T01:50:27.203Z,-2.35
2023-02-28T01:51:28.911Z,-2.35
2023-02-28T01:52:26.917Z,-2.32
2023-02-28T01:53:27.666Z,-2.39
2023-02-28T01:54:27.337Z,-2.40
2023-02-28T01:55:28.662Z,-2.36
2023-02-28T01:56:27.657Z,-2.42
2023-02-28T01:57:28.212Z,-2.42
2023-02-28T01:58:27.976Z,-2.47
2023-02-28T01:59:28.114Z,-2.53
2023-02-28T02:00:29.164Z,-2.47
2023-02-28T02:01:28.903Z,-2.61
2023-02-28T02:02:28.689Z,-2.66
2023-02-28T02:03:28.727Z,-2.72
2023-02-28T02:04:28.874Z,-2.64
2023-02-28T02:05:29.699Z,-2.54
2023-02-28T02:06:29.198Z,-2.61
2023-02-28T02:07:29.370Z,-2.63
2023-02-28T02:08:30.032Z,-2.60
2023-02-28T02:09:31.530Z,-2.56
2023-02-28T02:10:29.863Z,-2.45
2023-02-28T02:11:30.363Z,-2.45
2023-02-28T02:12:31.167Z,-2.38
2023-02-28T02:13:31.168Z,-2.36
2023-02-28T02:14:30.428Z,-2.36
2023-02-28T02:15:30.598Z,-2.29
2023-02-28T02:16:30.778Z,-2.26
2023-02-28T02:17:31.708Z,-2.23
2023-02-28T02:18:31.129Z,-2.33
2023-02-28T02:19:31.304Z,-2.43
2023-02-28T02:20:31.485Z,-2.45
2023-02-28T02:21:31.901Z,-2.58
2023-02-28T02:22:31.824Z,-2.60
2023-02-28T02:23:32.017Z,-2.60
2023-02-28T02:24:32.202Z,-2.74
2023-02-28T02:25:32.385Z,-2.66
2023-02-28T02:26:32.573Z,-2.66
2023-02-28T02:27:32.777Z,-2.63
2023-02-28T02:28:33.677Z,-2.63
2023-02-28T02:29:33.671Z,-2.68
2023-02-28T02:30:34.167Z,-2.75
2023-02-28T02:31:33.637Z,-2.79
2023-02-28T02:32:33.711Z,-2.76
2023-02-28T02:33:33.899Z,-2.78
2023-02-28T02:34:34.681Z,-2.76
2023-02-28T02:35:34.265Z,-2.74
2023-02-28T02:36:34.338Z,-2.75
2023-02-28T02:37:34.503Z,-2.75
2023-02-28T02:38:34.678Z,-2.85
2023-02-28T02:39:36.172Z,-2.85
2023-02-28T02:40:36.032Z,-2.78
2023-02-28T02:41:35.203Z,-2.79
2023-02-28T02:42:35.396Z,-2.86
2023-02-28T02:43:35.565Z,-2.72
2023-02-28T02:44:35.759Z,-2.85
2023-02-28T02:45:35.927Z,-2.72
2023-02-28T02:46:37.576Z,-2.78
2023-02-28T02:47:36.365Z,-2.74
2023-02-28T02:48:36.531Z,-2.72
2023-02-28T02:49:36.731Z,-2.81
2023-02-28T02:50:37.677Z,-2.78
2023-02-28T02:51:37.711Z,-2.72
2023-02-28T02:52:38.164Z,-2.78
2023-02-28T02:53:38.669Z,-2.74
2023-02-28T02:54:37.574Z,-2.75
2023-02-28T02:55:39.531Z,-2.74
2023-02-28T02:56:39.668Z,-2.79
2023-02-28T02:57:38.173Z,-2.76
2023-02-28T02:58:38.397Z,-2.79
2023-02-28T02:59:39.178Z,-2.86
2023-02-28T03:00:38.785Z,-2.97
2023-02-28T03:01:38.887Z,-2.86
2023-02-28T03:02:39.669Z,-2.86
2023-02-28T03:03:39.282Z,-2.92
2023-02-28T03:04:39.343Z,-2.85
2023-02-28T03:05:39.564Z,-2.93
2023-02-28T03:06:39.778Z,-2.86
2023-02-28T03:07:39.979Z,-2.89
2023-02-28T03:08:40.196Z,-2.81
2023-02-28T03:09:41.671Z,-2.94
2023-02-28T03:10:41.169Z,-2.89
2023-02-28T03:11:40.703Z,-2.86
2023-02-28T03:12:40.884Z,-2.87
2023-02-28T03:13:42.043Z,-2.79
2023-02-28T03:14:41.192Z,-2.92
2023-02-28T03:15:41.396Z,-2.79
2023-02-28T03:16:41.594Z,-2.92
2023-02-28T03:17:42.669Z,-2.94
2023-02-28T03:18:41.952Z,-2.92
2023-02-28T03:19:42.132Z,-3.05
2023-02-28T03:20:42.332Z,-2.94
2023-02-28T03:21:42.500Z,-2.82
2023-02-28T03:22:42.662Z,-2.93
2023-02-28T03:23:44.537Z,-2.90
2023-02-28T03:24:43.035Z,-2.82
2023-02-28T03:25:43.193Z,-2.82
2023-02-28T03:26:44.676Z,-2.76
2023-02-28T03:27:43.600Z,-2.79
2023-02-28T03:28:43.771Z,-2.68
2023-02-28T03:29:43.939Z,-2.74
2023-02-28T03:30:44.101Z,-2.79
2023-02-28T03:31:44.791Z,-2.81
2023-02-28T03:32:44.733Z,-2.89
2023-02-28T03:33:44.651Z,-2.86
2023-02-28T03:34:44.810Z,-2.86
2023-02-28T03:35:44.984Z,-2.90
2023-02-28T03:36:46.286Z,-2.92
2023-02-28T03:37:46.042Z,-3.05
2023-02-28T03:38:45.743Z,-2.99
2023-02-28T03:39:47.177Z,-3.08
2023-02-28T03:40:45.922Z,-3.05
2023-02-28T03:41:46.082Z,-3.02
2023-02-28T03:42:46.248Z,-3.14
2023-02-28T03:43:46.437Z,-3.08
2023-02-28T03:44:48.044Z,-3.02
2023-02-28T03:45:46.799Z,-3.05
2023-02-28T03:46:46.981Z,-3.07
2023-02-28T03:47:47.702Z,-3.05
2023-02-28T03:48:47.376Z,-3.05
2023-02-28T03:49:48.222Z,-3.14
2023-02-28T03:50:47.754Z,-3.10
2023-02-28T03:51:47.913Z,-3.07
2023-02-28T03:52:48.062Z,-3.05
2023-02-28T03:53:48.278Z,-3.14
2023-02-28T03:54:49.190Z,-3.18
2023-02-28T03:55:48.573Z,-3.10
2023-02-28T03:56:49.682Z,-3.17
2023-02-28T03:57:48.948Z,-3.17
2023-02-28T03:58:50.680Z,-3.13
2023-02-28T03:59:49.307Z,-3.17
2023-02-28T04:00:49.478Z,-3.11
2023-02-28T04:01:51.718Z,-3.22
2023-02-28T04:02:50.727Z,-3.08
2023-02-28T04:03:50.000Z,-3.08
2023-02-28T04:04:51.723Z,-3.10
2023-02-28T04:05:50.401Z,-3.15
2023-02-28T04:06:51.597Z,-3.10
2023-02-28T04:07:53.684Z,-3.02
2023-02-28T04:08:51.028Z,-2.94
2023-02-28T04:09:52.683Z,-3.02
2023-02-28T04:10:52.682Z,-2.99
2023-02-28T04:11:52.190Z,-3.07
2023-02-28T04:12:51.614Z,-3.05
2023-02-28T04:13:51.801Z,-3.10
2023-02-28T04:14:52.680Z,-3.05
2023-02-28T04:15:52.738Z,-3.08
2023-02-28T04:16:52.405Z,-3.15
2023-02-28T04:17:52.549Z,-3.11
2023-02-28T04:18:53.702Z,-3.04
2023-02-28T04:19:52.846Z,-3.02
2023-02-28T04:20:53.733Z,-2.93
2023-02-28T04:21:53.125Z,-3.04
2023-02-28T04:22:54.189Z,-3.08
2023-02-28T04:23:54.249Z,-3.11
2023-02-28T04:24:53.742Z,-3.07
2023-02-28T04:25:53.766Z,-3.04
2023-02-28T04:26:53.926Z,-3.07
2023-02-28T04:27:54.071Z,-3.14
2023-02-28T04:28:54.238Z,-3.11
2023-02-28T04:29:54.422Z,-3.22
2023-02-28T04:30:56.184Z,-3.10
2023-02-28T04:31:54.915Z,-3.10
2023-02-28T04:32:54.910Z,-3.22
2023-02-28T04:33:55.066Z,-3.31
2023-02-28T04:34:55.227Z,-3.20
2023-02-28T04:35:55.386Z,-3.26
2023-02-28T04:37:11.813Z,-3.31
2023-02-28T04:37:57.774Z,-3.33
2023-02-28T04:38:55.917Z,-3.32
2023-02-28T04:39:56.116Z,-3.26
2023-02-28T04:40:56.282Z,-3.28
2023-02-28T04:41:57.198Z,-3.15
2023-02-28T04:42:57.692Z,-3.23
2023-02-28T04:43:56.816Z,-3.32
2023-02-28T04:44:57.027Z,-3.15
2023-02-28T04:45:57.246Z,-3.23
2023-02-28T04:46:57.372Z,-3.31
2023-02-28T04:47:58.537Z,-3.23
2023-02-28T04:48:58.193Z,-3.15
2023-02-28T04:49:57.862Z,-3.23
2023-02-28T04:50:58.691Z,-3.10
2023-02-28T04:51:58.206Z,-3.13
2023-02-28T04:52:59.061Z,-3.18
2023-02-28T04:53:58.466Z,-3.13
2023-02-28T04:54:59.182Z,-3.13
2023-02-28T04:55:58.832Z,-3.08
2023-02-28T04:56:59.020Z,-3.17
2023-02-28T04:58:00.229Z,-3.25
2023-02-28T04:59:00.182Z,-3.28
2023-02-28T04:59:59.566Z,-3.29
2023-02-28T05:00:59.733Z,-3.31
2023-02-28T05:02:00.781Z,-3.43
2023-02-28T05:03:00.769Z,-3.54
2023-02-28T05:04:01.049Z,-3.53
2023-02-28T05:05:00.512Z,-3.46
2023-02-28T05:06:00.615Z,-3.50
2023-02-28T05:07:00.801Z,-3.56
2023-02-28T05:08:01.112Z,-3.56
2023-02-28T05:09:01.151Z,-3.53
2023-02-28T05:10:05.466Z,-3.50
2023-02-28T05:11:02.187Z,-3.53
2023-02-28T05:12:01.680Z,-3.44
2023-02-28T05:13:02.686Z,-3.50
2023-02-28T05:14:04.211Z,-3.51
2023-02-28T05:15:02.220Z,-3.47
2023-02-28T05:16:04.212Z,-3.51
2023-02-28T05:17:03.190Z,-3.54
2023-02-28T05:18:02.724Z,-3.53
2023-02-28T05:19:02.965Z,-3.47
2023-02-28T05:20:14.601Z,-3.49
2023-02-28T05:21:05.233Z,-3.44
2023-02-28T05:22:05.190Z,-3.51
2023-02-28T05:23:05.195Z,-3.46
2023-02-28T05:24:05.196Z,-3.54
2023-02-28T05:25:04.709Z,-3.44
2023-02-28T05:26:03.996Z,-3.38
2023-02-28T05:27:04.181Z,-3.46
2023-02-28T05:28:04.329Z,-3.38
2023-02-28T05:29:04.475Z,-3.38
2023-02-28T05:30:05.185Z,-3.29
2023-02-28T05:31:04.845Z,-3.36
2023-02-28T05:32:05.128Z,-3.31
2023-02-28T05:33:05.241Z,-3.39
2023-02-28T05:34:06.246Z,-3.36
2023-02-28T05:35:05.645Z,-3.43
2023-02-28T05:36:05.834Z,-3.44
2023-02-28T05:37:06.013Z,-3.51
2023-02-28T05:38:06.187Z,-3.47
2023-02-28T05:39:07.187Z,-3.53
2023-02-28T05:40:06.580Z,-3.41
2023-02-28T05:41:06.783Z,-3.26
2023-02-28T05:42:07.251Z,-3.22
2023-02-28T05:43:07.176Z,-3.33
2023-02-28T05:44:07.352Z,-3.33
2023-02-28T05:45:07.526Z,-3.43
2023-02-28T05:46:07.791Z,-3.33
2023-02-28T05:47:08.881Z,-3.36
2023-02-28T05:48:08.729Z,-3.35
2023-02-28T05:49:08.788Z,-3.28
2023-02-28T05:50:09.461Z,-3.33
2023-02-28T05:51:08.632Z,-3.31
2023-02-28T05:52:08.834Z,-3.28
2023-02-28T05:53:09.022Z,-3.29
2023-02-28T05:54:09.210Z,-3.32
2023-02-28T05:55:09.399Z,-3.35
2023-02-28T05:56:10.203Z,-3.29
2023-02-28T05:57:15.674Z,-3.38
2023-02-28T05:58:11.866Z,-3.25
2023-02-28T05:59:10.275Z,-3.29
2023-02-28T06:00:10.740Z,-3.38
2023-02-28T06:01:11.239Z,-3.38
2023-02-28T06:02:11.207Z,-3.26
2023-02-28T06:03:10.780Z,-3.31
2023-02-28T06:04:19.381Z,-3.32
2023-02-28T06:05:13.090Z,-3.28
2023-02-28T06:06:12.337Z,-3.26
2023-02-28T06:07:11.542Z,-3.29
2023-02-28T06:08:12.689Z,-3.26
2023-02-28T06:09:11.962Z,-3.22
2023-02-28T06:10:12.185Z,-3.13
2023-02-28T06:11:12.365Z,-3.18
2023-02-28T06:12:13.701Z,-3.31
2023-02-28T06:13:12.751Z,-3.26
2023-02-28T06:14:13.746Z,-3.28
2023-02-28T06:15:13.696Z,-3.28
2023-02-28T06:16:15.143Z,-3.26
2023-02-28T06:17:13.566Z,-3.28
2023-02-28T06:18:13.775Z,-3.17
2023-02-28T06:19:13.965Z,-3.26
2023-02-28T06:20:14.712Z,-3.17
2023-02-28T06:21:14.383Z,-3.14
2023-02-28T06:22:15.251Z,-3.05
2023-02-28T06:23:15.698Z,-3.05
2023-02-28T06:24:16.207Z,-3.07
2023-02-28T06:25:15.083Z,-2.93
2023-02-28T06:26:16.240Z,-3.00
2023-02-28T06:27:15.392Z,-3.02
2023-02-28T06:28:16.205Z,-3.11
2023-02-28T06:29:16.646Z,-3.04
2023-02-28T06:30:15.891Z,-3.11
2023-02-28T06:31:16.090Z,-3.05
2023-02-28T06:32:17.388Z,-3.13
2023-02-28T06:33:16.434Z,-3.08
2023-02-28T06:34:16.756Z,-3.07
2023-02-28T06:35:16.907Z,-3.04
2023-02-28T06:36:17.751Z,-3.08
2023-02-28T06:37:17.149Z,-3.02
2023-02-28T06:38:18.202Z,-3.05
2023-02-28T06:39:17.483Z,-2.93
2023-02-28T06:40:17.753Z,-2.92
2023-02-28T06:41:18.702Z,-2.90
2023-02-28T06:42:17.972Z,-2.94
2023-02-28T06:43:18.159Z,-2.92
2023-02-28T06:44:18.761Z,-3.05
2023-02-28T06:45:18.554Z,-2.87
2023-02-28T06:46:18.771Z,-2.86
2023-02-28T06:47:18.839Z,-2.87
2023-02-28T06:48:19.022Z,-2.86
2023-02-28T06:49:19.219Z,-2.76
2023-02-28T06:50:19.400Z,-2.87
2023-02-28T06:51:19.607Z,-2.75
2023-02-28T06:52:20.746Z,-2.79
2023-02-28T06:53:20.746Z,-2.76
2023-02-28T06:54:20.164Z,-2.66
2023-02-28T06:55:20.788Z,-2.63
2023-02-28T06:56:20.498Z,-2.53
2023-02-28T06:57:20.692Z,-2.56
2023-02-28T06:58:20.975Z,-2.53
2023-02-28T06:59:22.780Z,-2.47
2023-02-28T07:00:21.187Z,-2.45
2023-02-28T07:01:21.408Z,-2.35
2023-02-28T07:02:22.259Z,-2.33
2023-02-28T07:03:23.155Z,-2.36
2023-02-28T07:04:22.738Z,-2.35
2023-02-28T07:05:22.193Z,-2.21
2023-02-28T07:06:22.353Z,-2.17
2023-02-28T07:07:22.509Z,-1.84
2023-02-28T07:08:24.212Z,-1.15
2023-02-28T07:09:23.749Z,-0.36
2023-02-28T07:10:23.054Z,0.51
2023-02-28T07:11:23.278Z,1.33
2023-02-28T07:12:24.212Z,2.30
2023-02-28T07:13:23.605Z,2.97
2023-02-28T07:14:24.709Z,3.67
2023-02-28T07:15:24.259Z,4.19
2023-02-28T07:16:24.210Z,4.59
2023-02-28T07:17:24.385Z,5.07
2023-02-28T07:18:24.558Z,5.16
2023-02-28T07:19:24.755Z,5.60
2023-02-28T07:20:24.915Z,5.91
2023-02-28T07:21:25.122Z,5.93
2023-02-28T07:22:27.209Z,6.00
2023-02-28T07:23:25.459Z,6.03
2023-02-28T07:24:25.603Z,5.78
2023-02-28T07:25:25.775Z,4.70
2023-02-28T07:26:26.730Z,3.65
2023-02-28T07:27:26.118Z,3.12
2023-02-28T07:28:26.281Z,2.84
2023-02-28T07:29:26.433Z,2.92
2023-02-28T07:30:27.215Z,3.42
2023-02-28T07:31:28.262Z,4.01
2023-02-28T07:32:27.778Z,4.80
2023-02-28T07:33:27.711Z,5.07
2023-02-28T07:34:27.232Z,5.05
2023-02-28T07:35:27.412Z,4.99
2023-02-28T07:36:29.214Z,4.44
2023-02-28T07:37:28.720Z,3.53
2023-02-28T07:38:27.830Z,3.03
2023-02-28T07:39:28.751Z,2.73
2023-02-28T07:40:28.254Z,2.46
2023-02-28T07:41:29.626Z,2.82
2023-02-28T07:42:29.219Z,3.36
2023-02-28T07:43:29.214Z,4.16
2023-02-28T07:44:30.578Z,5.10
2023-02-28T07:45:29.766Z,5.74
2023-02-28T07:46:30.747Z,5.07
2023-02-28T07:47:31.227Z,4.12
2023-02-28T07:48:29.486Z,3.54
2023-02-28T07:49:29.657Z,2.61
2023-02-28T07:50:29.844Z,2.17
2023-02-28T07:51:31.045Z,1.54
2023-02-28T07:52:30.205Z,1.36
2023-02-28T07:53:30.381Z,1.21
2023-02-28T07:54:30.563Z,1.16
2023-02-28T07:55:31.277Z,1.08
2023-02-28T07:56:31.258Z,1.06
2023-02-28T07:57:33.670Z,0.92
2023-02-28T07:58:32.265Z,0.89
2023-02-28T07:59:32.408Z,0.86
2023-02-28T08:00:33.313Z,0.70
2023-02-28T08:01:33.846Z,0.62
2023-02-28T08:02:33.228Z,0.68
2023-02-28T08:03:32.149Z,0.65
2023-02-28T08:04:32.407Z,0.51
2023-02-28T08:05:32.560Z,0.49
2023-02-28T08:06:32.765Z,0.38
2023-02-28T08:07:32.946Z,0.42
2023-02-28T08:08:33.738Z,0.41
2023-02-28T08:09:33.300Z,0.52
2023-02-28T08:10:33.474Z,0.45
2023-02-28T08:11:33.664Z,0.36
2023-02-28T08:12:33.864Z,0.34
2023-02-28T08:13:34.117Z,0.36
2023-02-28T08:14:35.233Z,0.36
2023-02-28T08:15:34.517Z,0.34
2023-02-28T08:16:34.742Z,0.42
2023-02-28T08:17:35.769Z,0.52
2023-02-28T08:18:35.093Z,0.48
2023-02-28T08:19:35.275Z,0.46
2023-02-28T08:20:35.468Z,0.67
2023-02-28T08:21:36.240Z,0.96
2023-02-28T08:22:35.781Z,2.01
2023-02-28T08:23:36.000Z,3.07
2023-02-28T08:24:36.733Z,4.07
2023-02-28T08:25:36.421Z,4.57
2023-02-28T08:26:36.604Z,5.25
2023-02-28T08:27:37.731Z,6.03
2023-02-28T08:28:37.004Z,6.09
2023-02-28T08:29:37.193Z,6.32
2023-02-28T08:30:37.379Z,6.38
2023-02-28T08:31:37.564Z,5.70
2023-02-28T08:32:37.853Z,5.63
2023-02-28T08:33:38.772Z,5.10
2023-02-28T08:34:38.083Z,5.25
2023-02-28T08:35:38.375Z,5.32
2023-02-28T08:36:38.531Z,5.83
2023-02-28T08:37:39.595Z,5.82
2023-02-28T08:38:39.926Z,5.71
2023-02-28T08:39:39.915Z,5.48
2023-02-28T08:40:39.127Z,4.91
2023-02-28T08:41:39.737Z,4.65
2023-02-28T08:42:39.402Z,4.08
2023-02-28T08:43:39.578Z,3.13
2023-02-28T08:44:40.282Z,2.34
2023-02-28T08:45:40.024Z,2.19
2023-02-28T08:46:40.147Z,2.33
2023-02-28T08:47:41.237Z,2.51
2023-02-28T08:48:42.237Z,2.74
2023-02-28T08:49:40.751Z,3.07
2023-02-28T08:50:43.905Z,3.82
2023-02-28T08:51:42.106Z,4.18
2023-02-28T08:52:42.238Z,3.97
2023-02-28T08:53:41.388Z,3.83
2023-02-28T08:54:41.591Z,3.62
2023-02-28T08:55:41.775Z,3.86
2023-02-28T08:56:41.998Z,3.70
2023-02-28T08:57:42.236Z,3.33
2023-02-28T08:58:42.438Z,2.63
2023-02-28T08:59:44.234Z,2.27
2023-02-28T09:00:42.780Z,1.89
2023-02-28T09:01:42.987Z,1.73
2023-02-28T09:02:43.177Z,1.60
2023-02-28T09:03:43.349Z,1.36
2023-02-28T09:04:43.585Z,1.36
2023-02-28T09:05:43.777Z,1.29
2023-02-28T09:06:44.777Z,1.33
2023-02-28T09:07:44.070Z,1.32
2023-02-28T09:08:44.225Z,1.26
2023-02-28T09:09:45.410Z,1.36
2023-02-28T09:10:44.573Z,1.28
2023-02-28T09:11:44.742Z,1.24
2023-02-28T09:12:45.775Z,1.19
2023-02-28T09:13:45.735Z,1.22
2023-02-28T09:14:46.732Z,1.19
2023-02-28T09:15:45.512Z,1.07
2023-02-28T09:16:45.713Z,1.04
2023-02-28T09:17:47.200Z,1.08
2023-02-28T09:18:47.732Z,1.01
2023-02-28T09:19:47.231Z,1.12
2023-02-28T09:20:46.398Z,1.06
2023-02-28T09:21:46.812Z,1.21
2023-02-28T09:22:47.735Z,1.18
2023-02-28T09:23:46.888Z,1.36
2023-02-28T09:24:47.101Z,1.18
2023-02-28T09:25:49.252Z,1.14
2023-02-28T09:26:56.784Z,1.04
2023-02-28T09:27:49.673Z,1.10
2023-02-28T09:28:48.737Z,1.18
2023-02-28T09:29:48.343Z,1.15
2023-02-28T09:30:48.209Z,1.00
2023-02-28T09:31:48.859Z,0.94
2023-02-28T09:32:50.403Z,1.07
2023-02-28T09:33:49.716Z,1.00
2023-02-28T09:34:48.856Z,1.00
2023-02-28T09:35:49.048Z,1.07
2023-02-28T09:36:49.612Z,1.12
2023-02-28T09:37:49.369Z,1.10
2023-02-28T09:38:49.804Z,1.01
2023-02-28T09:39:50.728Z,1.15
2023-02-28T09:40:49.844Z,1.40
2023-02-28T09:41:49.994Z,1.43
2023-02-28T09:42:50.792Z,1.47
2023-02-28T09:43:50.310Z,1.62
2023-02-28T09:44:50.800Z,1.65
2023-02-28T09:45:50.713Z,1.69
2023-02-28T09:46:51.751Z,1.89
2023-02-28T09:47:51.131Z,1.87
2023-02-28T09:48:52.751Z,1.62
2023-02-28T09:49:51.413Z,1.55
2023-02-28T09:50:51.601Z,1.46
2023-02-28T09:51:52.744Z,1.50
2023-02-28T09:52:52.786Z,1.47
2023-02-28T09:53:56.685Z,1.36
2023-02-28T09:54:54.219Z,1.36
2023-02-28T09:55:52.335Z,1.24
2023-02-28T09:56:52.567Z,1.28
2023-02-28T09:57:52.764Z,1.15
2023-02-28T09:58:55.753Z,1.28
2023-02-28T09:59:53.106Z,1.29
2023-02-28T10:00:53.308Z,1.44
2023-02-28T10:01:54.861Z,1.24
2023-02-28T10:02:53.674Z,1.19
2023-02-28T10:03:53.849Z,1.26
2023-02-28T10:04:54.796Z,1.42
2023-02-28T10:05:54.215Z,1.25
2023-02-28T10:06:54.803Z,1.33
2023-02-28T10:07:55.295Z,1.40
2023-02-28T10:08:54.791Z,1.40
2023-02-28T10:09:54.965Z,1.39
2023-02-28T10:10:55.788Z,1.44
2023-02-28T10:11:56.987Z,1.47
2023-02-28T10:12:55.531Z,1.54
2023-02-28T10:13:56.247Z,1.51
2023-02-28T10:14:56.797Z,1.62
2023-02-28T10:15:56.156Z,1.57
2023-02-28T10:16:56.242Z,1.80
2023-02-28T10:18:08.423Z,1.82
2023-02-28T10:18:58.529Z,1.72
2023-02-28T10:19:56.754Z,1.82
2023-02-28T10:20:57.753Z,1.87
2023-02-28T10:21:57.141Z,1.78
2023-02-28T10:22:57.311Z,1.91
2023-02-28T10:23:57.537Z,2.02
2023-02-28T10:24:58.296Z,1.93
2023-02-28T10:25:57.856Z,1.89
2023-02-28T10:26:59.646Z,1.79
2023-02-28T10:27:58.324Z,1.82
2023-02-28T10:28:59.253Z,1.87
2023-02-28T10:29:59.297Z,1.89
2023-02-28T10:31:00.279Z,2.08
2023-02-28T10:32:00.268Z,2.58
2023-02-28T10:32:59.184Z,2.46
2023-02-28T10:34:01.293Z,2.22
2023-02-28T10:34:59.560Z,1.97
2023-02-28T10:35:59.772Z,1.99
2023-02-28T10:36:59.990Z,2.10
2023-02-28T10:38:00.143Z,2.12
2023-02-28T10:39:01.257Z,2.28
2023-02-28T10:40:00.885Z,2.40
2023-02-28T10:41:00.669Z,2.40
2023-02-28T10:42:00.838Z,2.35
2023-02-28T10:43:01.058Z,2.38
2023-02-28T10:44:01.237Z,2.31
2023-02-28T10:45:01.457Z,2.41
2023-02-28T10:46:02.147Z,2.66
2023-02-28T10:47:01.826Z,2.76
2023-02-28T10:48:02.011Z,2.92
2023-02-28T10:49:03.271Z,2.84
2023-02-28T10:50:02.423Z,2.95
2023-02-28T10:51:02.632Z,3.06
2023-02-28T10:52:02.851Z,3.23
2023-02-28T10:53:05.090Z,3.71
2023-02-28T10:54:04.300Z,3.78
2023-02-28T10:55:03.444Z,4.07
2023-02-28T10:56:03.664Z,4.28
2023-02-28T10:57:03.846Z,4.52
2023-02-28T10:58:04.048Z,4.73
2023-02-28T10:59:04.767Z,4.67
2023-02-28T11:00:04.433Z,4.36
2023-02-28T11:01:04.677Z,4.40
2023-02-28T11:02:07.418Z,4.47
2023-02-28T11:03:05.810Z,4.64
2023-02-28T11:04:05.320Z,4.89
2023-02-28T11:05:05.352Z,4.98
2023-02-28T11:06:06.324Z,4.94
2023-02-28T11:07:05.640Z,4.89
2023-02-28T11:08:06.815Z,4.61
2023-02-28T11:09:06.039Z,4.76
2023-02-28T11:10:06.262Z,4.58
2023-02-28T11:11:07.300Z,4.59
2023-02-28T11:12:06.826Z,4.73
2023-02-28T11:13:07.314Z,4.70
2023-02-28T11:14:08.761Z,4.55
2023-02-28T11:15:07.808Z,4.43
2023-02-28T11:16:08.798Z,4.24
2023-02-28T11:17:09.757Z,3.76
2023-02-28T11:18:07.901Z,3.52
2023-02-28T11:19:08.099Z,3.33
2023-02-28T11:20:08.294Z,3.16
2023-02-28T11:21:08.360Z,3.20
2023-02-28T11:22:08.564Z,3.23
2023-02-28T11:23:08.715Z,3.43
2023-02-28T11:24:08.854Z,3.36
2023-02-28T11:25:09.766Z,3.53
2023-02-28T11:26:09.152Z,3.80
2023-02-28T11:27:09.347Z,3.98
2023-02-28T11:28:09.526Z,3.85
2023-02-28T11:29:09.682Z,4.03
2023-02-28T11:30:10.764Z,4.04
2023-02-28T11:31:10.064Z,4.04
2023-02-28T11:32:10.446Z,3.97
2023-02-28T11:33:10.492Z,4.16
2023-02-28T11:34:11.261Z,4.26
2023-02-28T11:35:11.625Z,4.24
2023-02-28T11:36:12.817Z,4.33
2023-02-28T11:37:11.220Z,4.44
2023-02-28T11:38:12.430Z,4.64
2023-02-28T11:39:11.584Z,4.72
2023-02-28T11:40:11.749Z,4.39
2023-02-28T11:41:12.828Z,4.34
2023-02-28T11:42:12.800Z,4.32
2023-02-28T11:43:13.628Z,4.29
2023-02-28T11:44:12.419Z,4.33
2023-02-28T11:45:12.576Z,4.37
2023-02-28T11:46:12.781Z,4.24
2023-02-28T11:47:12.939Z,4.21
2023-02-28T11:48:14.762Z,4.21
2023-02-28T11:49:14.264Z,4.33
2023-02-28T11:50:13.406Z,4.40
2023-02-28T11:51:13.587Z,4.47
2023-02-28T11:52:13.728Z,4.06
2023-02-28T11:53:14.803Z,4.06
2023-02-28T11:54:14.323Z,4.04
2023-02-28T11:55:14.221Z,4.15
2023-02-28T11:56:14.409Z,4.22
2023-02-28T11:57:15.339Z,4.21
2023-02-28T11:58:14.723Z,4.47
2023-02-28T11:59:16.273Z,4.52
2023-02-28T12:00:15.048Z,4.40
2023-02-28T12:01:15.831Z,4.36
2023-02-28T12:02:16.165Z,4.46
2023-02-28T12:03:15.512Z,4.58
2023-02-28T12:04:15.683Z,4.67
2023-02-28T12:05:15.854Z,4.67
2023-02-28T12:06:16.334Z,4.67
2023-02-28T12:07:18.274Z,4.67
2023-02-28T12:08:17.282Z,4.22
2023-02-28T12:09:17.784Z,4.06
2023-02-28T12:10:17.278Z,4.29
2023-02-28T12:11:16.831Z,4.15
2023-02-28T12:12:16.984Z,4.19
2023-02-28T12:13:17.819Z,4.34
2023-02-28T12:14:17.347Z,4.28
2023-02-28T12:15:17.547Z,4.24
2023-02-28T12:16:17.773Z,4.14
2023-02-28T12:17:18.836Z,4.03
2023-02-28T12:18:18.133Z,4.22
2023-02-28T12:19:20.282Z,4.33
2023-02-28T12:20:18.543Z,4.34
2023-02-28T12:21:18.718Z,4.43
2023-02-28T12:22:20.777Z,4.44
2023-02-28T12:23:19.785Z,4.57
2023-02-28T12:24:19.214Z,4.84
2023-02-28T12:25:19.382Z,4.91
2023-02-28T12:26:20.281Z,5.04
2023-02-28T12:27:19.704Z,5.02
2023-02-28T12:28:19.863Z,4.99
2023-02-28T12:29:20.067Z,4.95
2023-02-28T12:30:20.233Z,5.05
2023-02-28T12:31:21.292Z,4.58
2023-02-28T12:32:20.981Z,4.62
2023-02-28T12:33:22.148Z,4.51
2023-02-28T12:34:21.827Z,4.47
2023-02-28T12:35:21.079Z,4.59
2023-02-28T12:36:21.265Z,4.50
2023-02-28T12:37:22.281Z,4.57
2023-02-28T12:38:21.700Z,4.36
2023-02-28T12:39:23.972Z,4.28
2023-02-28T12:40:23.073Z,4.12
2023-02-28T12:41:22.212Z,4.18
2023-02-28T12:42:22.840Z,4.26
2023-02-28T12:43:22.615Z,4.34
2023-02-28T12:44:22.790Z,4.51
2023-02-28T12:45:23.081Z,4.61
2023-02-28T12:46:23.324Z,4.55
2023-02-28T12:47:24.289Z,4.65
2023-02-28T12:48:23.455Z,4.67
2023-02-28T12:49:24.285Z,4.77
2023-02-28T12:50:23.844Z,4.94
2023-02-28T12:51:24.354Z,5.09
2023-02-28T12:52:25.788Z,5.09
2023-02-28T12:53:24.428Z,5.14
2023-02-28T12:54:24.622Z,4.99
2023-02-28T12:55:25.825Z,4.84
2023-02-28T12:56:25.792Z,4.76
2023-02-28T12:57:25.208Z,4.86
2023-02-28T12:58:26.415Z,4.86
2023-02-28T12:59:26.335Z,4.77
2023-02-28T13:00:26.285Z,4.84
2023-02-28T13:01:27.592Z,4.83
2023-02-28T13:02:26.187Z,4.44
2023-02-28T13:03:26.234Z,4.33
2023-02-28T13:04:26.425Z,4.22
2023-02-28T13:05:27.335Z,4.21
2023-02-28T13:06:27.786Z,4.39